sensor_id;sensor_type;location;lat;lon;timestamp;pressure;altitude;pressure_sealevel;temperature;humidity
41230;BME280;26964;50.428;19.218;2023-05-10T00:00:28;1021.6;;;8.4;49.0
41230;BME280;26964;50.428;19.218;2023-05-10T00:01:29;1021.8;;;8.4;49.1
41230;BME280;26964;50.428;19.218;2023-05-10T00:02:29;1021.7;;;8.4;49.1
41230;BME280;26964;50.428;19.218;2023-05-10T00:03:28;1021.7;;;8.4;49.1
41230;BME280;26964;50.428;19.218;2023-05-10T00:04:29;1021.7;;;8.4;49.1
41230;BME280;26964;50.428;19.218;2023-05-10T00:05:28;1021.7;;;8.4;49.1
41230;BME280;26964;50.428;19.218;2023-05-10T00:06:28;1021.7;;;8.4;49.2
41230;BME280;26964;50.428;19.218;2023-05-10T00:07:30;1021.7;;;8.4;49.2
41230;BME280;26964;50.428;19.218;2023-05-10T00:08:28;1021.7;;;8.3;49.2
41230;BME280;26964;50.428;19.218;2023-05-10T00:09:28;1021.6;;;8.3;49.3
41230;BME280;26964;50.428;19.218;2023-05-10T00:10:28;1021.6;;;8.3;49.2
41230;BME280;26964;50.428;19.218;2023-05-10T00:11:29;1021.7;;;8.3;49.3
41230;BME280;26964;50.428;19.218;2023-05-10T00:12:29;1021.6;;;8.3;49.3
41230;BME280;26964;50.428;19.218;2023-05-10T00:13:28;1021.5;;;8.3;49.3
41230;BME280;26964;50.428;19.218;2023-05-10T00:14:28;1021.6;;;8.3;49.3
41230;BME280;26964;50.428;19.218;2023-05-10T00:15:28;1021.6;;;8.3;49.3
41230;BME280;26964;50.428;19.218;2023-05-10T00:16:28;1021.6;;;8.2;49.4
41230;BME280;26964;50.428;19.218;2023-05-10T00:17:29;1021.6;;;8.2;49.4
41230;BME280;26964;50.428;19.218;2023-05-10T00:18:29;1021.6;;;8.2;49.4
41230;BME280;26964;50.428;19.218;2023-05-10T00:19:29;1021.6;;;8.2;49.4
41230;BME280;26964;50.428;19.218;2023-05-10T00:20:29;1021.6;;;8.2;49.5
41230;BME280;26964;50.428;19.218;2023-05-10T00:21:29;1021.6;;;8.2;49.5
41230;BME280;26964;50.428;19.218;2023-05-10T00:22:29;1021.6;;;8.1;49.5
41230;BME280;26964;50.428;19.218;2023-05-10T00:23:29;1021.6;;;8.1;49.5
41230;BME280;26964;50.428;19.218;2023-05-10T00:24:28;1021.6;;;8.1;49.5
41230;BME280;26964;50.428;19.218;2023-05-10T00:25:28;1021.6;;;8.1;49.6
41230;BME280;26964;50.428;19.218;2023-05-10T00:26:29;1021.6;;;8.1;49.6
41230;BME280;26964;50.428;19.218;2023-05-10T00:27:29;1021.6;;;8.1;49.6
41230;BME280;26964;50.428;19.218;2023-05-10T00:28:29;1021.6;;;8.1;49.6
41230;BME280;26964;50.428;19.218;2023-05-10T00:29:28;1021.6;;;8.1;49.6
41230;BME280;26964;50.428;19.218;2023-05-10T00:30:29;1021.5;;;8.0;49.7
41230;BME280;26964;50.428;19.218;2023-05-10T00:31:29;1021.6;;;8.0;49.7
41230;BME280;26964;50.428;19.218;2023-05-10T00:32:28;1021.5;;;8.0;49.7
41230;BME280;26964;50.428;19.218;2023-05-10T00:33:29;1021.5;;;8.0;49.8
41230;BME280;26964;50.428;19.218;2023-05-10T00:34:28;1021.6;;;8.0;49.8
41230;BME280;26964;50.428;19.218;2023-05-10T00:35:28;1021.5;;;8.0;49.8
41230;BME280;26964;50.428;19.218;2023-05-10T00:36:29;1021.5;;;8.0;49.8
41230;BME280;26964;50.428;19.218;2023-05-10T00:37:29;1021.5;;;8.0;49.8
41230;BME280;26964;50.428;19.218;2023-05-10T00:38:28;1021.5;;;8.0;49.9
41230;BME280;26964;50.428;19.218;2023-05-10T00:39:29;1021.5;;;7.9;49.9
41230;BME280;26964;50.428;19.218;2023-05-10T00:40:29;1021.5;;;7.9;50.0
41230;BME280;26964;50.428;19.218;2023-05-10T00:41:29;1021.5;;;7.9;49.9
41230;BME280;26964;50.428;19.218;2023-05-10T00:42:28;1021.5;;;7.9;49.9
41230;BME280;26964;50.428;19.218;2023-05-10T00:43:29;1021.5;;;7.9;50.0
41230;BME280;26964;50.428;19.218;2023-05-10T00:44:29;1021.5;;;7.9;50.1
41230;BME280;26964;50.428;19.218;2023-05-10T00:45:29;1021.5;;;7.9;50.0
41230;BME280;26964;50.428;19.218;2023-05-10T00:46:28;1021.5;;;7.9;50.0
41230;BME280;26964;50.428;19.218;2023-05-10T00:47:28;1021.4;;;7.8;50.1
41230;BME280;26964;50.428;19.218;2023-05-10T00:48:29;1021.4;;;7.8;50.1
41230;BME280;26964;50.428;19.218;2023-05-10T00:49:29;1021.4;;;7.8;50.1
41230;BME280;26964;50.428;19.218;2023-05-10T00:50:29;1021.4;;;7.8;50.2
41230;BME280;26964;50.428;19.218;2023-05-10T00:51:28;1021.4;;;7.8;50.2
41230;BME280;26964;50.428;19.218;2023-05-10T00:52:29;1021.4;;;7.8;50.2
41230;BME280;26964;50.428;19.218;2023-05-10T00:53:30;1021.4;;;7.8;50.2
41230;BME280;26964;50.428;19.218;2023-05-10T00:54:28;1021.4;;;7.7;50.2
41230;BME280;26964;50.428;19.218;2023-05-10T00:55:28;1021.4;;;7.7;50.3
41230;BME280;26964;50.428;19.218;2023-05-10T00:56:28;1021.4;;;7.7;50.3
41230;BME280;26964;50.428;19.218;2023-05-10T00:57:28;1021.4;;;7.7;50.3
41230;BME280;26964;50.428;19.218;2023-05-10T00:58:29;1021.4;;;7.7;50.4
41230;BME280;26964;50.428;19.218;2023-05-10T00:59:29;1021.4;;;7.7;50.4
41230;BME280;26964;50.428;19.218;2023-05-10T01:00:37;1021.4;;;7.7;50.4
41230;BME280;26964;50.428;19.218;2023-05-10T01:01:28;1021.4;;;7.7;50.5
41230;BME280;26964;50.428;19.218;2023-05-10T01:02:28;1021.4;;;7.7;50.4
41230;BME280;26964;50.428;19.218;2023-05-10T01:03:28;1021.4;;;7.7;50.5
41230;BME280;26964;50.428;19.218;2023-05-10T01:04:28;1021.3;;;7.7;50.5
41230;BME280;26964;50.428;19.218;2023-05-10T01:05:29;1021.4;;;7.7;50.6
41230;BME280;26964;50.428;19.218;2023-05-10T01:06:28;1021.3;;;7.7;50.6
41230;BME280;26964;50.428;19.218;2023-05-10T01:07:29;1021.3;;;7.6;50.6
41230;BME280;26964;50.428;19.218;2023-05-10T01:08:28;1021.4;;;7.7;50.7
41230;BME280;26964;50.428;19.218;2023-05-10T01:09:28;1021.3;;;7.6;50.6
41230;BME280;26964;50.428;19.218;2023-05-10T01:10:28;1021.4;;;7.6;50.7
41230;BME280;26964;50.428;19.218;2023-05-10T01:11:28;1021.3;;;7.6;50.6
41230;BME280;26964;50.428;19.218;2023-05-10T01:12:28;1021.3;;;7.6;50.7
41230;BME280;26964;50.428;19.218;2023-05-10T01:13:32;1021.3;;;7.6;50.7
41230;BME280;26964;50.428;19.218;2023-05-10T01:14:28;1021.4;;;7.6;50.7
41230;BME280;26964;50.428;19.218;2023-05-10T01:15:29;1021.3;;;7.6;50.7
41230;BME280;26964;50.428;19.218;2023-05-10T01:16:29;1021.3;;;7.5;50.7
41230;BME280;26964;50.428;19.218;2023-05-10T01:17:29;1021.3;;;7.5;50.8
41230;BME280;26964;50.428;19.218;2023-05-10T01:18:30;1021.3;;;7.5;50.8
41230;BME280;26964;50.428;19.218;2023-05-10T01:19:29;1021.3;;;7.5;50.8
41230;BME280;26964;50.428;19.218;2023-05-10T01:20:35;1021.2;;;7.5;50.8
41230;BME280;26964;50.428;19.218;2023-05-10T01:21:33;1021.3;;;7.5;50.9
41230;BME280;26964;50.428;19.218;2023-05-10T01:32:31;1021.2;;;7.4;51.1
41230;BME280;26964;50.428;19.218;2023-05-10T01:33:30;1021.2;;;7.4;51.1
41230;BME280;26964;50.428;19.218;2023-05-10T01:34:34;1021.2;;;7.3;51.2
41230;BME280;26964;50.428;19.218;2023-05-10T01:35:32;1021.3;;;7.3;51.2
41230;BME280;26964;50.428;19.218;2023-05-10T01:36:31;1021.2;;;7.3;51.2
41230;BME280;26964;50.428;19.218;2023-05-10T01:37:36;1021.2;;;7.3;51.3
41230;BME280;26964;50.428;19.218;2023-05-10T01:38:33;1021.3;;;7.3;51.2
41230;BME280;26964;50.428;19.218;2023-05-10T01:39:32;1021.2;;;7.3;51.3
41230;BME280;26964;50.428;19.218;2023-05-10T01:40:34;1021.2;;;7.3;51.3
41230;BME280;26964;50.428;19.218;2023-05-10T01:41:40;1021.2;;;7.3;51.3
41230;BME280;26964;50.428;19.218;2023-05-10T01:42:34;1021.2;;;7.3;51.3
41230;BME280;26964;50.428;19.218;2023-05-10T01:43:37;1021.2;;;7.3;51.4
41230;BME280;26964;50.428;19.218;2023-05-10T01:44:34;1021.2;;;7.3;51.3
41230;BME280;26964;50.428;19.218;2023-05-10T01:45:33;1021.2;;;7.3;51.4
41230;BME280;26964;50.428;19.218;2023-05-10T01:46:33;1021.1;;;7.3;51.4
41230;BME280;26964;50.428;19.218;2023-05-10T01:47:33;1021.1;;;7.3;51.4
41230;BME280;26964;50.428;19.218;2023-05-10T01:48:28;1021.1;;;7.3;51.4
41230;BME280;26964;50.428;19.218;2023-05-10T01:49:31;1021.1;;;7.3;51.5
41230;BME280;26964;50.428;19.218;2023-05-10T01:50:30;1021.1;;;7.2;51.5
41230;BME280;26964;50.428;19.218;2023-05-10T01:51:35;1021.1;;;7.3;51.5
41230;BME280;26964;50.428;19.218;2023-05-10T01:52:33;1021.1;;;7.3;51.5
41230;BME280;26964;50.428;19.218;2023-05-10T01:53:29;1021.1;;;7.2;51.5
41230;BME280;26964;50.428;19.218;2023-05-10T01:54:29;1021.1;;;7.2;51.6
41230;BME280;26964;50.428;19.218;2023-05-10T01:55:30;1021.1;;;7.2;51.6
41230;BME280;26964;50.428;19.218;2023-05-10T01:56:30;1021.1;;;7.2;51.6
41230;BME280;26964;50.428;19.218;2023-05-10T01:57:33;1021.1;;;7.2;51.6
41230;BME280;26964;50.428;19.218;2023-05-10T01:58:32;1021.1;;;7.2;51.6
41230;BME280;26964;50.428;19.218;2023-05-10T02:00:29;1021.0;;;7.2;51.6
41230;BME280;26964;50.428;19.218;2023-05-10T02:01:29;1021.0;;;7.2;51.6
41230;BME280;26964;50.428;19.218;2023-05-10T02:02:30;1021.1;;;7.2;51.6
41230;BME280;26964;50.428;19.218;2023-05-10T02:03:31;1021.1;;;7.2;51.7
41230;BME280;26964;50.428;19.218;2023-05-10T02:04:29;1021.0;;;7.2;51.7
41230;BME280;26964;50.428;19.218;2023-05-10T02:05:29;1021.1;;;7.2;51.7
41230;BME280;26964;50.428;19.218;2023-05-10T02:06:29;1021.1;;;7.2;51.7
41230;BME280;26964;50.428;19.218;2023-05-10T02:07:29;1021.0;;;7.2;51.7
41230;BME280;26964;50.428;19.218;2023-05-10T02:08:29;1021.0;;;7.2;51.7
41230;BME280;26964;50.428;19.218;2023-05-10T02:09:30;1021.0;;;7.2;51.8
41230;BME280;26964;50.428;19.218;2023-05-10T02:10:29;1021.0;;;7.2;51.8
41230;BME280;26964;50.428;19.218;2023-05-10T02:11:29;1020.9;;;7.2;51.8
41230;BME280;26964;50.428;19.218;2023-05-10T02:12:29;1020.9;;;7.2;51.8
41230;BME280;26964;50.428;19.218;2023-05-10T02:13:28;1020.9;;;7.2;51.8
41230;BME280;26964;50.428;19.218;2023-05-10T02:14:30;1021.0;;;7.2;51.8
41230;BME280;26964;50.428;19.218;2023-05-10T02:15:29;1020.9;;;7.2;51.8
41230;BME280;26964;50.428;19.218;2023-05-10T02:16:29;1020.9;;;7.2;51.8
41230;BME280;26964;50.428;19.218;2023-05-10T02:17:29;1020.9;;;7.2;51.8
41230;BME280;26964;50.428;19.218;2023-05-10T02:18:29;1020.9;;;7.1;51.9
41230;BME280;26964;50.428;19.218;2023-05-10T02:19:28;1020.9;;;7.1;51.9
41230;BME280;26964;50.428;19.218;2023-05-10T02:20:29;1020.9;;;7.1;51.9
41230;BME280;26964;50.428;19.218;2023-05-10T02:21:29;1020.9;;;7.1;51.9
41230;BME280;26964;50.428;19.218;2023-05-10T02:22:28;1020.9;;;7.1;51.9
41230;BME280;26964;50.428;19.218;2023-05-10T02:23:29;1020.9;;;7.1;51.9
41230;BME280;26964;50.428;19.218;2023-05-10T02:24:29;1020.9;;;7.1;52.0
41230;BME280;26964;50.428;19.218;2023-05-10T02:25:29;1020.9;;;7.1;52.0
41230;BME280;26964;50.428;19.218;2023-05-10T02:26:29;1020.9;;;7.1;52.0
41230;BME280;26964;50.428;19.218;2023-05-10T02:27:29;1020.9;;;7.1;52.0
41230;BME280;26964;50.428;19.218;2023-05-10T02:28:29;1021.0;;;7.1;52.0
41230;BME280;26964;50.428;19.218;2023-05-10T02:29:28;1020.9;;;7.0;52.0
41230;BME280;26964;50.428;19.218;2023-05-10T02:30:29;1020.9;;;7.0;52.0
41230;BME280;26964;50.428;19.218;2023-05-10T02:31:33;1020.8;;;7.0;52.0
41230;BME280;26964;50.428;19.218;2023-05-10T02:32:29;1020.8;;;6.9;52.0
41230;BME280;26964;50.428;19.218;2023-05-10T02:33:30;1020.9;;;6.9;52.1
41230;BME280;26964;50.428;19.218;2023-05-10T02:34:29;1020.9;;;6.9;52.1
41230;BME280;26964;50.428;19.218;2023-05-10T02:35:29;1020.8;;;6.9;52.1
41230;BME280;26964;50.428;19.218;2023-05-10T02:36:28;1020.9;;;6.9;52.2
41230;BME280;26964;50.428;19.218;2023-05-10T02:37:28;1020.8;;;6.9;52.2
41230;BME280;26964;50.428;19.218;2023-05-10T02:38:28;1020.9;;;6.8;52.2
41230;BME280;26964;50.428;19.218;2023-05-10T02:39:29;1020.9;;;6.8;52.2
41230;BME280;26964;50.428;19.218;2023-05-10T02:40:28;1020.9;;;6.8;52.2
41230;BME280;26964;50.428;19.218;2023-05-10T02:41:32;1020.9;;;6.8;52.3
41230;BME280;26964;50.428;19.218;2023-05-10T02:42:29;1020.9;;;6.7;52.3
41230;BME280;26964;50.428;19.218;2023-05-10T02:43:30;1020.9;;;6.7;52.3
41230;BME280;26964;50.428;19.218;2023-05-10T02:44:29;1020.8;;;6.7;52.3
41230;BME280;26964;50.428;19.218;2023-05-10T02:45:30;1020.9;;;6.7;52.4
41230;BME280;26964;50.428;19.218;2023-05-10T02:46:28;1020.9;;;6.6;52.4
41230;BME280;26964;50.428;19.218;2023-05-10T02:47:28;1020.8;;;6.6;52.4
41230;BME280;26964;50.428;19.218;2023-05-10T02:48:28;1020.9;;;6.6;52.4
41230;BME280;26964;50.428;19.218;2023-05-10T02:49:28;1020.8;;;6.6;52.5
41230;BME280;26964;50.428;19.218;2023-05-10T02:50:32;1020.8;;;6.6;52.5
41230;BME280;26964;50.428;19.218;2023-05-10T02:51:32;1020.8;;;6.6;52.5
41230;BME280;26964;50.428;19.218;2023-05-10T02:52:30;1020.9;;;6.5;52.5
41230;BME280;26964;50.428;19.218;2023-05-10T02:53:33;1020.9;;;6.5;52.5
41230;BME280;26964;50.428;19.218;2023-05-10T02:54:30;1020.8;;;6.5;52.6
41230;BME280;26964;50.428;19.218;2023-05-10T02:55:32;1020.9;;;6.5;52.6
41230;BME280;26964;50.428;19.218;2023-05-10T02:56:33;1020.9;;;6.5;52.6
41230;BME280;26964;50.428;19.218;2023-05-10T02:57:33;1020.8;;;6.4;52.6
41230;BME280;26964;50.428;19.218;2023-05-10T02:58:29;1020.8;;;6.4;52.6
41230;BME280;26964;50.428;19.218;2023-05-10T02:59:28;1020.8;;;6.4;52.7
41230;BME280;26964;50.428;19.218;2023-05-10T03:00:28;1020.9;;;6.4;52.7
41230;BME280;26964;50.428;19.218;2023-05-10T03:01:29;1020.8;;;6.4;52.7
41230;BME280;26964;50.428;19.218;2023-05-10T03:02:28;1020.8;;;6.4;52.7
41230;BME280;26964;50.428;19.218;2023-05-10T03:03:29;1020.8;;;6.3;52.7
41230;BME280;26964;50.428;19.218;2023-05-10T03:04:29;1020.9;;;6.3;52.8
41230;BME280;26964;50.428;19.218;2023-05-10T03:05:28;1020.9;;;6.3;52.8
41230;BME280;26964;50.428;19.218;2023-05-10T03:06:29;1020.8;;;6.3;52.8
41230;BME280;26964;50.428;19.218;2023-05-10T03:07:28;1020.9;;;6.3;52.8
41230;BME280;26964;50.428;19.218;2023-05-10T03:08:28;1020.9;;;6.3;52.8
41230;BME280;26964;50.428;19.218;2023-05-10T03:09:28;1020.9;;;6.2;52.9
41230;BME280;26964;50.428;19.218;2023-05-10T03:10:29;1020.9;;;6.2;52.9
41230;BME280;26964;50.428;19.218;2023-05-10T03:12:36;1020.9;;;6.2;52.9
41230;BME280;26964;50.428;19.218;2023-05-10T03:13:34;1020.9;;;6.2;53.0
41230;BME280;26964;50.428;19.218;2023-05-10T03:15:35;1020.9;;;6.1;53.0
41230;BME280;26964;50.428;19.218;2023-05-10T03:16:34;1020.8;;;6.1;53.0
41230;BME280;26964;50.428;19.218;2023-05-10T03:17:31;1020.8;;;6.1;53.1
41230;BME280;26964;50.428;19.218;2023-05-10T03:18:29;1020.9;;;6.1;53.1
41230;BME280;26964;50.428;19.218;2023-05-10T03:19:34;1020.9;;;6.1;53.1
41230;BME280;26964;50.428;19.218;2023-05-10T03:20:34;1020.9;;;6.1;53.1
41230;BME280;26964;50.428;19.218;2023-05-10T03:21:29;1020.9;;;6.1;53.2
41230;BME280;26964;50.428;19.218;2023-05-10T03:22:34;1020.8;;;6.0;53.2
41230;BME280;26964;50.428;19.218;2023-05-10T03:23:34;1020.9;;;6.0;53.2
41230;BME280;26964;50.428;19.218;2023-05-10T03:24:28;1020.8;;;6.0;53.2
41230;BME280;26964;50.428;19.218;2023-05-10T03:25:32;1020.8;;;5.9;53.2
41230;BME280;26964;50.428;19.218;2023-05-10T03:26:28;1020.8;;;5.9;53.3
41230;BME280;26964;50.428;19.218;2023-05-10T03:27:29;1020.8;;;5.9;53.3
41230;BME280;26964;50.428;19.218;2023-05-10T03:28:29;1020.8;;;5.9;53.3
41230;BME280;26964;50.428;19.218;2023-05-10T03:29:29;1020.8;;;5.9;53.4
41230;BME280;26964;50.428;19.218;2023-05-10T03:30:29;1020.8;;;5.9;53.4
41230;BME280;26964;50.428;19.218;2023-05-10T03:31:29;1020.8;;;5.9;53.4
41230;BME280;26964;50.428;19.218;2023-05-10T03:32:29;1020.7;;;5.9;53.5
41230;BME280;26964;50.428;19.218;2023-05-10T03:33:28;1020.8;;;5.8;53.5
41230;BME280;26964;50.428;19.218;2023-05-10T03:34:30;1020.8;;;5.8;53.5
41230;BME280;26964;50.428;19.218;2023-05-10T03:35:28;1020.8;;;5.8;53.6
41230;BME280;26964;50.428;19.218;2023-05-10T03:36:29;1020.8;;;5.8;53.6
41230;BME280;26964;50.428;19.218;2023-05-10T03:37:29;1020.8;;;5.8;53.6
41230;BME280;26964;50.428;19.218;2023-05-10T03:38:29;1020.8;;;5.8;53.6
41230;BME280;26964;50.428;19.218;2023-05-10T03:39:28;1020.8;;;5.8;53.7
41230;BME280;26964;50.428;19.218;2023-05-10T03:40:28;1020.8;;;5.8;53.7
41230;BME280;26964;50.428;19.218;2023-05-10T03:41:28;1020.8;;;5.8;53.7
41230;BME280;26964;50.428;19.218;2023-05-10T03:42:28;1020.8;;;5.8;53.8
41230;BME280;26964;50.428;19.218;2023-05-10T03:43:29;1020.7;;;5.8;53.8
41230;BME280;26964;50.428;19.218;2023-05-10T03:44:29;1020.8;;;5.8;53.8
41230;BME280;26964;50.428;19.218;2023-05-10T03:45:29;1020.9;;;5.8;53.8
41230;BME280;26964;50.428;19.218;2023-05-10T03:46:28;1020.8;;;5.8;53.9
41230;BME280;26964;50.428;19.218;2023-05-10T03:47:28;1020.8;;;5.8;53.9
41230;BME280;26964;50.428;19.218;2023-05-10T03:48:28;1020.7;;;5.8;53.9
41230;BME280;26964;50.428;19.218;2023-05-10T03:49:29;1020.8;;;5.8;53.9
41230;BME280;26964;50.428;19.218;2023-05-10T03:50:28;1020.8;;;5.8;54.0
41230;BME280;26964;50.428;19.218;2023-05-10T03:51:29;1020.8;;;5.8;54.0
41230;BME280;26964;50.428;19.218;2023-05-10T03:52:28;1020.8;;;5.8;54.0
41230;BME280;26964;50.428;19.218;2023-05-10T03:53:29;1020.7;;;5.8;54.0
41230;BME280;26964;50.428;19.218;2023-05-10T03:54:29;1020.7;;;5.8;54.1
41230;BME280;26964;50.428;19.218;2023-05-10T03:55:29;1020.7;;;5.9;54.1
41230;BME280;26964;50.428;19.218;2023-05-10T03:56:29;1020.8;;;5.9;54.1
41230;BME280;26964;50.428;19.218;2023-05-10T03:57:29;1020.7;;;5.9;54.1
41230;BME280;26964;50.428;19.218;2023-05-10T03:58:29;1020.7;;;5.9;54.1
41230;BME280;26964;50.428;19.218;2023-05-10T03:59:29;1020.8;;;5.9;54.2
41230;BME280;26964;50.428;19.218;2023-05-10T04:00:28;1020.7;;;5.9;54.2
41230;BME280;26964;50.428;19.218;2023-05-10T04:01:29;1020.7;;;5.9;54.2
41230;BME280;26964;50.428;19.218;2023-05-10T04:02:29;1020.7;;;5.9;54.3
41230;BME280;26964;50.428;19.218;2023-05-10T04:03:29;1020.7;;;5.9;54.3
41230;BME280;26964;50.428;19.218;2023-05-10T04:04:28;1020.8;;;6.0;54.4
41230;BME280;26964;50.428;19.218;2023-05-10T04:05:28;1020.7;;;6.0;54.4
41230;BME280;26964;50.428;19.218;2023-05-10T04:06:29;1020.7;;;6.0;54.4
41230;BME280;26964;50.428;19.218;2023-05-10T04:07:29;1020.8;;;6.0;54.5
41230;BME280;26964;50.428;19.218;2023-05-10T04:08:28;1020.8;;;6.0;54.4
41230;BME280;26964;50.428;19.218;2023-05-10T04:09:29;1020.7;;;6.1;54.5
41230;BME280;26964;50.428;19.218;2023-05-10T04:10:28;1020.8;;;6.1;54.5
41230;BME280;26964;50.428;19.218;2023-05-10T04:11:29;1020.7;;;6.1;54.5
41230;BME280;26964;50.428;19.218;2023-05-10T04:12:29;1020.7;;;6.1;54.5
41230;BME280;26964;50.428;19.218;2023-05-10T04:13:28;1020.6;;;6.1;54.6
41230;BME280;26964;50.428;19.218;2023-05-10T04:14:28;1020.7;;;6.2;54.6
41230;BME280;26964;50.428;19.218;2023-05-10T04:15:29;1020.7;;;6.2;54.6
41230;BME280;26964;50.428;19.218;2023-05-10T04:16:29;1020.7;;;6.2;54.6
41230;BME280;26964;50.428;19.218;2023-05-10T04:17:29;1020.7;;;6.3;54.6
41230;BME280;26964;50.428;19.218;2023-05-10T04:18:29;1020.8;;;6.3;54.6
41230;BME280;26964;50.428;19.218;2023-05-10T04:19:29;1020.7;;;6.3;54.6
41230;BME280;26964;50.428;19.218;2023-05-10T04:20:29;1020.7;;;6.3;54.6
41230;BME280;26964;50.428;19.218;2023-05-10T04:21:29;1020.7;;;6.3;54.7
41230;BME280;26964;50.428;19.218;2023-05-10T04:22:29;1020.7;;;6.4;54.7
41230;BME280;26964;50.428;19.218;2023-05-10T04:23:28;1020.8;;;6.4;54.7
41230;BME280;26964;50.428;19.218;2023-05-10T04:24:28;1020.7;;;6.4;54.7
41230;BME280;26964;50.428;19.218;2023-05-10T04:25:29;1020.7;;;6.5;54.7
41230;BME280;26964;50.428;19.218;2023-05-10T04:26:29;1020.7;;;6.5;54.7
41230;BME280;26964;50.428;19.218;2023-05-10T04:27:29;1020.7;;;6.6;54.7
41230;BME280;26964;50.428;19.218;2023-05-10T04:28:29;1020.8;;;6.6;54.7
41230;BME280;26964;50.428;19.218;2023-05-10T04:29:29;1020.7;;;6.6;54.7
41230;BME280;26964;50.428;19.218;2023-05-10T04:30:29;1020.8;;;6.6;54.8
41230;BME280;26964;50.428;19.218;2023-05-10T04:31:28;1020.8;;;6.7;54.8
41230;BME280;26964;50.428;19.218;2023-05-10T04:32:28;1020.8;;;6.7;54.8
41230;BME280;26964;50.428;19.218;2023-05-10T04:33:29;1020.8;;;6.7;54.8
41230;BME280;26964;50.428;19.218;2023-05-10T04:34:33;1020.8;;;6.8;54.8
41230;BME280;26964;50.428;19.218;2023-05-10T04:35:28;1020.7;;;6.8;54.8
41230;BME280;26964;50.428;19.218;2023-05-10T04:36:29;1020.7;;;6.8;54.8
41230;BME280;26964;50.428;19.218;2023-05-10T04:37:29;1020.8;;;6.8;54.8
41230;BME280;26964;50.428;19.218;2023-05-10T04:38:28;1020.8;;;6.9;54.8
41230;BME280;26964;50.428;19.218;2023-05-10T04:39:29;1020.8;;;6.9;54.9
41230;BME280;26964;50.428;19.218;2023-05-10T04:40:29;1020.8;;;6.9;54.9
41230;BME280;26964;50.428;19.218;2023-05-10T04:41:28;1020.7;;;7.0;54.9
41230;BME280;26964;50.428;19.218;2023-05-10T04:42:29;1020.8;;;7.0;54.9
41230;BME280;26964;50.428;19.218;2023-05-10T04:43:29;1020.8;;;7.0;54.9
41230;BME280;26964;50.428;19.218;2023-05-10T04:44:28;1020.8;;;7.1;54.9
41230;BME280;26964;50.428;19.218;2023-05-10T04:45:29;1020.8;;;7.1;54.9
41230;BME280;26964;50.428;19.218;2023-05-10T04:46:28;1020.8;;;7.1;54.9
41230;BME280;26964;50.428;19.218;2023-05-10T04:47:29;1020.8;;;7.1;55.0
41230;BME280;26964;50.428;19.218;2023-05-10T04:48:28;1020.8;;;7.2;55.0
41230;BME280;26964;50.428;19.218;2023-05-10T04:49:28;1020.9;;;7.2;55.0
41230;BME280;26964;50.428;19.218;2023-05-10T04:50:29;1020.8;;;7.2;55.0
41230;BME280;26964;50.428;19.218;2023-05-10T04:51:29;1020.8;;;7.2;55.0
41230;BME280;26964;50.428;19.218;2023-05-10T04:52:29;1020.8;;;7.3;55.0
41230;BME280;26964;50.428;19.218;2023-05-10T04:53:29;1020.7;;;7.3;55.0
41230;BME280;26964;50.428;19.218;2023-05-10T04:54:29;1020.8;;;7.3;55.0
41230;BME280;26964;50.428;19.218;2023-05-10T04:55:29;1020.8;;;7.3;55.1
41230;BME280;26964;50.428;19.218;2023-05-10T04:56:29;1020.8;;;7.4;55.1
41230;BME280;26964;50.428;19.218;2023-05-10T04:57:28;1020.8;;;7.4;55.1
41230;BME280;26964;50.428;19.218;2023-05-10T04:58:29;1020.7;;;7.4;55.1
41230;BME280;26964;50.428;19.218;2023-05-10T04:59:29;1020.8;;;7.4;55.1
41230;BME280;26964;50.428;19.218;2023-05-10T05:00:29;1020.8;;;7.5;55.1
41230;BME280;26964;50.428;19.218;2023-05-10T05:01:29;1020.7;;;7.5;55.1
41230;BME280;26964;50.428;19.218;2023-05-10T05:02:29;1020.8;;;7.5;55.1
41230;BME280;26964;50.428;19.218;2023-05-10T05:03:29;1020.7;;;7.5;55.1
41230;BME280;26964;50.428;19.218;2023-05-10T05:04:29;1020.7;;;7.6;55.1
41230;BME280;26964;50.428;19.218;2023-05-10T05:05:29;1020.7;;;7.6;55.1
41230;BME280;26964;50.428;19.218;2023-05-10T05:06:28;1020.7;;;7.6;55.1
41230;BME280;26964;50.428;19.218;2023-05-10T05:07:29;1020.8;;;7.6;55.1
41230;BME280;26964;50.428;19.218;2023-05-10T05:08:28;1020.8;;;7.7;55.1
41230;BME280;26964;50.428;19.218;2023-05-10T05:09:29;1020.8;;;7.7;55.2
41230;BME280;26964;50.428;19.218;2023-05-10T05:10:29;1020.8;;;7.7;55.2
41230;BME280;26964;50.428;19.218;2023-05-10T05:11:29;1020.7;;;7.8;55.2
41230;BME280;26964;50.428;19.218;2023-05-10T05:12:29;1020.8;;;7.8;55.2
41230;BME280;26964;50.428;19.218;2023-05-10T05:13:29;1020.8;;;7.8;55.2
41230;BME280;26964;50.428;19.218;2023-05-10T05:14:29;1020.8;;;7.8;55.2
41230;BME280;26964;50.428;19.218;2023-05-10T05:15:29;1020.7;;;7.9;55.2
41230;BME280;26964;50.428;19.218;2023-05-10T05:16:32;1020.8;;;7.9;55.2
41230;BME280;26964;50.428;19.218;2023-05-10T05:17:30;1020.8;;;7.9;55.2
41230;BME280;26964;50.428;19.218;2023-05-10T05:18:29;1020.7;;;7.9;55.2
41230;BME280;26964;50.428;19.218;2023-05-10T05:19:32;1020.8;;;8.0;55.2
41230;BME280;26964;50.428;19.218;2023-05-10T05:20:28;1020.8;;;8.0;55.2
41230;BME280;26964;50.428;19.218;2023-05-10T05:21:29;1020.8;;;8.1;55.2
41230;BME280;26964;50.428;19.218;2023-05-10T05:22:29;1020.8;;;8.1;55.2
41230;BME280;26964;50.428;19.218;2023-05-10T05:23:29;1020.7;;;8.1;55.2
41230;BME280;26964;50.428;19.218;2023-05-10T05:24:29;1020.7;;;8.2;55.2
41230;BME280;26964;50.428;19.218;2023-05-10T05:25:29;1020.7;;;8.2;55.2
41230;BME280;26964;50.428;19.218;2023-05-10T05:26:28;1020.7;;;8.2;55.2
41230;BME280;26964;50.428;19.218;2023-05-10T05:27:29;1020.8;;;8.3;55.2
41230;BME280;26964;50.428;19.218;2023-05-10T05:28:29;1020.7;;;8.3;55.2
41230;BME280;26964;50.428;19.218;2023-05-10T05:29:29;1020.8;;;8.3;55.2
41230;BME280;26964;50.428;19.218;2023-05-10T05:30:28;1020.7;;;8.4;55.2
41230;BME280;26964;50.428;19.218;2023-05-10T05:31:28;1020.7;;;8.4;55.3
41230;BME280;26964;50.428;19.218;2023-05-10T05:32:29;1020.7;;;8.4;55.2
41230;BME280;26964;50.428;19.218;2023-05-10T05:33:29;1020.7;;;8.5;55.2
41230;BME280;26964;50.428;19.218;2023-05-10T05:34:29;1020.7;;;8.5;55.3
41230;BME280;26964;50.428;19.218;2023-05-10T05:35:29;1020.7;;;8.6;55.2
41230;BME280;26964;50.428;19.218;2023-05-10T05:36:28;1020.7;;;8.6;55.2
41230;BME280;26964;50.428;19.218;2023-05-10T05:37:29;1020.7;;;8.6;55.2
41230;BME280;26964;50.428;19.218;2023-05-10T05:38:29;1020.7;;;8.7;55.2
41230;BME280;26964;50.428;19.218;2023-05-10T05:39:29;1020.7;;;8.8;55.2
41230;BME280;26964;50.428;19.218;2023-05-10T05:40:29;1020.7;;;8.8;55.1
41230;BME280;26964;50.428;19.218;2023-05-10T05:41:28;1020.7;;;8.8;55.1
41230;BME280;26964;50.428;19.218;2023-05-10T05:42:29;1020.7;;;8.9;55.1
41230;BME280;26964;50.428;19.218;2023-05-10T05:43:28;1020.7;;;8.9;55.1
41230;BME280;26964;50.428;19.218;2023-05-10T05:44:29;1020.7;;;9.0;55.1
41230;BME280;26964;50.428;19.218;2023-05-10T05:45:29;1020.7;;;9.0;55.1
41230;BME280;26964;50.428;19.218;2023-05-10T05:46:29;1020.7;;;9.0;55.1
41230;BME280;26964;50.428;19.218;2023-05-10T05:47:29;1020.7;;;9.1;55.1
41230;BME280;26964;50.428;19.218;2023-05-10T05:48:30;1020.7;;;9.1;55.0